Time;durP1;ratioP1;P1;durP2;ratioP2;P2;SDS_P1;SDS_P2;PMS_P1;PMS_P2;Temp;Humidity;BMP_temperature;BMP_pressure;BME280_temperature;BME280_humidity;BME280_pressure;Samples;Min_cycle;Max_cycle;Signal;HPM_P1;HPM_P2
2022/12/26 00:00:48;;;;;;;;;;;;;;;12.51;59.65;100272.28;2339094;76;50556;-77
2022/12/26 00:03:50;;;;;;;;;;;;;;;12.51;59.61;100268.77;2339188;76;50254;-77
2022/12/26 00:06:51;;;;;;;;;;;;;;;12.51;59.64;100266.11;2307188;76;51597;-77
2022/12/26 00:09:53;;;;;;;;;;;;;;;12.49;59.66;100267.61;2339287;76;50645;-78
2022/12/26 00:12:54;;;;;;;;;;;;;;;12.50;59.65;100261.81;2339358;76;51389;-77
2022/12/26 00:15:56;;;;;;;;;;;;;;;12.50;59.70;100268.44;2339362;76;51427;-78
2022/12/26 00:18:57;;;;;;;;;;;;;;;12.49;59.72;100263.63;2307226;76;50972;-78
2022/12/26 00:21:59;;;;;;;;;;;;;;;12.50;59.66;100253.84;2307751;76;51414;-78
2022/12/26 00:25:01;;;;;;;;;;;;;;;12.49;59.67;100253.02;2304594;76;51469;-78
2022/12/26 00:28:03;;;;;;;;;;;;;;;12.49;59.66;100241.08;2300075;76;50641;-78
2022/12/26 00:31:05;;;;;;;;;;;;;;;12.51;59.57;100232.95;2281188;76;51648;-78
2022/12/26 00:34:07;;;;;;;;;;;;;;;12.51;59.65;100234.27;2309795;76;51441;-78
2022/12/26 00:37:08;;;;;;;;;;;;;;;12.52;59.59;100227.50;2309580;76;51543;-78
2022/12/26 00:40:10;;;;;;;;;;;;;;;12.52;59.65;100249.23;2341531;75;51213;-78
2022/12/26 00:43:12;;;;;;;;;;;;;;;12.51;59.63;100246.22;2309467;76;51502;-78
2022/12/26 00:46:14;;;;;;;;;;;;;;;12.53;59.57;100244.25;2314591;76;50198;-79
2022/12/26 00:49:15;;;;;;;;;;;;;;;12.52;59.60;100234.13;2345047;76;51437;-78
2022/12/26 00:52:17;;;;;;;;;;;;;;;12.52;59.60;100228.82;2325267;76;50626;-78
2022/12/26 00:55:19;;;;;;;;;;;;;;;12.52;59.65;100229.32;2328427;75;52294;-79
2022/12/26 00:58:20;;;;;;;;;;;;;;;12.52;59.67;100222.69;2320054;76;50779;-79
2022/12/26 01:01:22;;;;;;;;;;;;;;;12.52;59.66;100231.48;2345200;76;51341;-78
2022/12/26 01:04:23;;;;;;;;;;;;;;;12.50;59.70;100223.33;2345237;76;51390;-78
2022/12/26 01:07:25;;;;;;;;;;;;;;;12.50;59.71;100204.75;2325008;76;52330;-78
2022/12/26 01:10:27;;;;;;;;;;;;;;;12.51;59.71;100213.05;2345050;76;51411;-78
2022/12/26 01:13:28;;;;;;;;;;;;;;;12.52;59.66;100216.05;2325302;76;51450;-78
2022/12/26 01:16:30;;;;;;;;;;;;;;;12.51;59.69;100208.59;2344815;76;50667;-78
2022/12/26 01:19:32;;;;;;;;;;;;;;;12.53;59.63;100204.44;2336020;75;52472;-79
2022/12/26 01:22:33;;;;;;;;;;;;;;;12.52;59.66;100200.13;2344992;76;52044;-79
2022/12/26 01:25:35;;;;;;;;;;;;;;;12.52;59.68;100200.13;2311396;76;50579;-78
2022/12/26 01:28:36;;;;;;;;;;;;;;;12.52;59.69;100193.50;2295723;76;51285;-78
2022/12/26 01:31:38;;;;;;;;;;;;;;;12.51;59.67;100199.30;2294383;76;52331;-78
2022/12/26 01:34:39;;;;;;;;;;;;;;;12.52;59.68;100198.80;2316993;76;50547;-78
2022/12/26 01:37:41;;;;;;;;;;;;;;;12.51;59.69;100209.92;2305592;77;50227;-78
2022/12/26 01:40:43;;;;;;;;;;;;;;;12.51;59.73;100211.25;2286467;77;50295;-78
2022/12/26 01:43:52;;;;;;;;;;;;;;;12.50;59.70;100194.97;2305792;77;51397;-78
2022/12/26 01:46:53;;;;;;;;;;;;;;;12.51;59.74;100191.81;2305497;77;50752;-79
2022/12/26 01:49:55;;;;;;;;;;;;;;;12.51;59.71;100190.48;2305795;76;51416;-78
2022/12/26 01:52:57;;;;;;;;;;;;;;;12.50;59.81;100184.85;2305746;77;52062;-78
2022/12/26 01:56:01;;;;;;;;;;;;;;;12.50;59.82;100186.18;2302121;76;50224;-78
2022/12/26 01:59:04;;;;;;;;;;;;;;;12.49;59.80;100185.85;2344427;75;50473;-79
2022/12/26 02:02:05;;;;;;;;;;;;;;;12.50;59.82;100176.89;2310409;76;49912;-78
2022/12/26 02:08:28;;;;;;;;;;;;;;;12.51;59.77;100185.18;2328414;76;22358;-78
2022/12/26 02:11:34;;;;;;;;;;;;;;;12.52;59.76;100181.55;2345228;76;50787;-79
2022/12/26 02:14:36;;;;;;;;;;;;;;;12.51;59.73;100182.52;2331037;76;51577;-78
2022/12/26 02:17:38;;;;;;;;;;;;;;;12.51;59.81;100179.87;2345090;76;50186;-79
2022/12/26 02:20:41;;;;;;;;;;;;;;;12.51;59.82;100178.55;2325085;76;51066;-78
2022/12/26 02:23:53;;;;;;;;;;;;;;;12.51;59.84;100187.36;2345122;76;51610;-78
2022/12/26 02:26:57;;;;;;;;;;;;;;;12.52;59.77;100186.86;2314145;76;51390;-78
2022/12/26 02:30:03;;;;;;;;;;;;;;;12.51;59.80;100173.23;2345371;76;51440;-78
2022/12/26 02:33:12;;;;;;;;;;;;;;;12.51;59.79;100174.09;2310015;76;51193;-79
2022/12/26 02:36:15;;;;;;;;;;;;;;;12.51;59.88;100179.41;2345039;75;50338;-78
2022/12/26 02:39:18;;;;;;;;;;;;;;;12.52;59.82;100169.61;2345158;76;50767;-78
2022/12/26 02:42:25;;;;;;;;;;;;;;;12.52;59.77;100169.61;2345335;76;50731;-79
2022/12/26 02:49:07;;;;;;;;;;;;;;;12.51;59.82;100166.60;2345320;76;22424;-78
2022/12/26 03:19:10;;;;;;;;;;;;;;;12.50;59.91;100179.55;2345604;76;22251;-78
2022/12/26 03:22:29;;;;;;;;;;;;;;;12.51;59.92;100178.55;2345165;76;50658;-78
2022/12/26 03:28:35;;;;;;;;;;;;;;;12.52;59.88;100177.58;2307271;76;24623;-77
2022/12/26 03:31:37;;;;;;;;;;;;;;;12.51;59.91;100171.91;2305712;77;50248;-77
2022/12/26 03:34:42;;;;;;;;;;;;;;;12.53;59.86;100197.30;2305510;77;50263;-77
2022/12/26 03:37:49;;;;;;;;;;;;;;;12.53;59.87;100184.53;2286183;77;52451;-77
2022/12/26 04:45:09;;;;;;;;;;;;;;;12.53;60.00;100201.78;2301290;76;23000;-79
2022/12/26 04:51:31;;;;;;;;;;;;;;;12.52;60.00;100205.44;2294825;77;22389;-78
2022/12/26 04:54:32;;;;;;;;;;;;;;;12.51;60.08;100205.08;2308578;76;50286;-78
2022/12/26 04:57:34;;;;;;;;;;;;;;;12.51;60.06;100207.27;2280693;77;50905;-79
2022/12/26 05:00:35;;;;;;;;;;;;;;;12.53;60.00;100203.11;2263302;77;50298;-78
2022/12/26 05:10:18;;;;;;;;;;;;;;;12.52;60.01;100217.38;2294235;76;22441;-78
2022/12/26 05:13:20;;;;;;;;;;;;;;;12.53;60.05;100217.20;2292653;77;50242;-77
2022/12/26 05:29:40;;;;;;;;;;;;;;;12.54;60.00;100232.16;2335430;75;22468;-77
2022/12/26 05:36:01;;;;;;;;;;;;;;;12.54;60.04;100232.66;2335302;76;24285;-77
2022/12/26 05:39:03;;;;;;;;;;;;;;;12.54;60.13;100240.63;2305443;76;51346;-78
2022/12/26 05:42:05;;;;;;;;;;;;;;;12.53;60.14;100230.98;2334963;75;50721;-78
2022/12/26 05:45:07;;;;;;;;;;;;;;;12.53;60.13;100234.45;2305739;76;50624;-78
2022/12/26 05:48:08;;;;;;;;;;;;;;;12.52;60.12;100242.59;2311158;75;50294;-77
2022/12/26 05:51:10;;;;;;;;;;;;;;;12.53;60.10;100244.25;2320358;75;50636;-77
2022/12/26 05:54:11;;;;;;;;;;;;;;;12.55;60.08;100247.59;2320836;75;51479;-78
2022/12/26 05:57:13;;;;;;;;;;;;;;;12.56;60.05;100240.81;2313650;75;50616;-77
2022/12/26 06:00:15;;;;;;;;;;;;;;;12.55;60.11;100247.09;2336316;75;50995;-77
2022/12/26 06:03:16;;;;;;;;;;;;;;;12.57;59.99;100252.25;2356545;75;50257;-77
2022/12/26 06:06:18;;;;;;;;;;;;;;;12.55;60.04;100241.78;2336389;75;50245;-76
2022/12/26 06:09:20;;;;;;;;;;;;;;;12.57;60.01;100244.29;2356583;75;51397;-78
2022/12/26 06:12:21;;;;;;;;;;;;;;;12.56;59.99;100239.95;2295596;75;51149;-77
2022/12/26 06:15:23;;;;;;;;;;;;;;;12.55;60.10;100240.95;2336393;75;50248;-77
2022/12/26 06:18:25;;;;;;;;;;;;;;;12.57;60.00;100249.60;2336181;75;50304;-77
2022/12/26 06:21:26;;;;;;;;;;;;;;;12.55;60.09;100252.39;2356529;75;50240;-78
2022/12/26 06:24:28;;;;;;;;;;;;;;;12.54;60.21;100245.44;2325710;75;51145;-77
2022/12/26 06:27:29;;;;;;;;;;;;;;;12.56;60.08;100246.12;2313878;76;51890;-77
2022/12/26 06:30:31;;;;;;;;;;;;;;;12.57;60.10;100242.47;2311892;75;50673;-77
2022/12/26 06:33:32;;;;;;;;;;;;;;;12.57;60.08;100241.64;2280855;77;51358;-78
2022/12/26 06:36:34;;;;;;;;;;;;;;;12.56;60.08;100247.45;2280763;77;51459;-77
2022/12/26 06:39:36;;;;;;;;;;;;;;;12.56;60.06;100255.88;2280589;77;51349;-77
2022/12/26 06:42:37;;;;;;;;;;;;;;;12.57;60.08;100274.81;2311964;77;50248;-77
2022/12/26 06:45:39;;;;;;;;;;;;;;;12.57;60.11;100282.78;2312216;77;50212;-78
2022/12/26 06:48:40;;;;;;;;;;;;;;;12.58;60.04;100284.43;2301357;76;50893;-78
2022/12/26 06:51:43;;;;;;;;;;;;;;;12.58;60.02;100271.16;2270073;77;50632;-77
2022/12/26 06:54:45;;;;;;;;;;;;;;;12.57;60.10;100288.91;2271237;76;51557;-77
2022/12/26 06:57:47;;;;;;;;;;;;;;;12.58;60.09;100300.35;2305679;76;50230;-77
2022/12/26 07:00:48;;;;;;;;;;;;;;;12.59;60.07;100302.05;2269314;76;51110;-77
2022/12/26 07:03:51;;;;;;;;;;;;;;;12.57;60.17;100307.48;2323602;76;50218;-77
2022/12/26 07:06:52;;;;;;;;;;;;;;;12.57;60.15;100319.93;2323333;76;52319;-77
2022/12/26 07:09:54;;;;;;;;;;;;;;;12.58;60.09;100316.28;2324178;76;49923;-77
2022/12/26 07:12:55;;;;;;;;;;;;;;;12.57;60.32;100315.95;2324308;76;50234;-77
2022/12/26 07:16:00;;;;;;;;;;;;;;;12.58;60.17;100312.30;2324233;76;49736;-78
2022/12/26 07:19:02;;;;;;;;;;;;;;;12.57;60.18;100315.95;2324439;76;51439;-78
2022/12/26 07:22:03;;;;;;;;;;;;;;;12.57;60.13;100318.61;2302556;77;51305;-78
2022/12/26 07:25:05;;;;;;;;;;;;;;;12.58;60.15;100316.28;2290526;76;52153;-77
2022/12/26 07:28:07;;;;;;;;;;;;;;;12.59;60.20;100321.95;2302521;76;52143;-78
2022/12/26 07:31:08;;;;;;;;;;;;;;;12.58;60.22;100321.09;2294711;76;50689;-79
2022/12/26 07:34:10;;;;;;;;;;;;;;;12.59;60.09;100317.97;2324993;76;49941;-78
2022/12/26 07:37:11;;;;;;;;;;;;;;;12.59;60.10;100320.62;2295776;76;51157;-78
2022/12/26 07:40:13;;;;;;;;;;;;;;;12.57;60.17;100314.63;2307496;75;50624;-78
2022/12/26 07:43:14;;;;;;;;;;;;;;;12.57;60.27;100317.28;2305745;77;50344;-76
2022/12/26 07:46:16;;;;;;;;;;;;;;;12.59;60.18;100312.66;2306206;77;50188;-78
2022/12/26 07:49:18;;;;;;;;;;;;;;;12.60;60.11;100312.98;2279571;77;50013;-77
2022/12/26 07:52:20;;;;;;;;;;;;;;;12.58;60.22;100317.61;2271447;78;51656;-77
2022/12/26 07:55:21;;;;;;;;;;;;;;;12.58;60.29;100325.06;2267733;76;50289;-77
2022/12/26 07:58:23;;;;;;;;;;;;;;;12.61;60.16;100321.28;2304939;76;50116;-79
2022/12/26 08:01:24;;;;;;;;;;;;;;;12.61;60.19;100341.19;2302890;76;50730;-77
2022/12/26 08:04:26;;;;;;;;;;;;;;;12.59;60.29;100341.85;2254393;78;52422;-77
2022/12/26 08:07:28;;;;;;;;;;;;;;;12.60;60.17;100351.47;2254475;78;50182;-77
2022/12/26 08:10:29;;;;;;;;;;;;;;;12.62;60.19;100346.85;2283173;76;49843;-77
2022/12/26 08:13:31;;;;;;;;;;;;;;;12.58;60.34;100344.14;2254222;78;50219;-77
2022/12/26 08:16:32;;;;;;;;;;;;;;;12.59;60.25;100339.20;2270846;78;51606;-78
2022/12/26 08:19:34;;;;;;;;;;;;;;;12.60;60.26;100331.06;2283106;76;51587;-77
2022/12/26 08:22:36;;;;;;;;;;;;;;;12.60;60.19;100333.72;2254431;78;50731;-78
2022/12/26 08:25:37;;;;;;;;;;;;;;;12.61;60.26;100342.52;2265964;76;51464;-78
2022/12/26 08:28:39;;;;;;;;;;;;;;;12.60;60.30;100340.86;2249429;76;52305;-78
2022/12/26 08:31:40;;;;;;;;;;;;;;;12.61;60.23;100333.22;2279197;77;50284;-78
2022/12/26 08:34:42;;;;;;;;;;;;;;;12.62;60.19;100344.20;2300608;76;50196;-78
2022/12/26 08:37:43;;;;;;;;;;;;;;;12.61;60.23;100338.53;2300648;77;50597;-78
2022/12/26 08:40:47;;;;;;;;;;;;;;;12.63;60.22;100341.87;2248834;77;51681;-78
2022/12/26 08:43:52;;;;;;;;;;;;;;;12.63;60.19;100349.84;2299977;76;51508;-78
2022/12/26 08:46:53;;;;;;;;;;;;;;;12.62;60.27;100341.55;2300644;77;52034;-78
2022/12/26 08:49:55;;;;;;;;;;;;;;;12.62;60.30;100342.37;2319311;76;51519;-78
2022/12/26 08:52:56;;;;;;;;;;;;;;;12.61;60.31;100343.38;2274803;76;53704;-78
2022/12/26 08:55:58;;;;;;;;;;;;;;;12.62;60.40;100344.20;2327621;75;51478;-77
2022/12/26 08:59:00;;;;;;;;;;;;;;;12.63;60.39;100337.89;2354179;75;50702;-77
2022/12/26 09:02:01;;;;;;;;;;;;;;;12.63;60.27;100344.53;2322270;75;51363;-77
2022/12/26 09:05:03;;;;;;;;;;;;;;;12.64;60.34;100347.05;2322105;75;52309;-77
2022/12/26 09:08:05;;;;;;;;;;;;;;;12.63;60.25;100351.98;2322024;74;51970;-78
2022/12/26 09:11:08;;;;;;;;;;;;;;;12.63;60.38;100368.41;2354388;75;50641;-78
2022/12/26 09:14:09;;;;;;;;;;;;;;;12.62;60.39;100374.72;2354355;75;49917;-78
2022/12/26 09:17:11;;;;;;;;;;;;;;;12.63;60.31;100376.37;2321880;75;52361;-78
2022/12/26 09:20:12;;;;;;;;;;;;;;;12.66;60.31;100387.19;2322258;75;51533;-77
2022/12/26 09:23:14;;;;;;;;;;;;;;;12.66;60.26;100388.02;2322106;75;51526;-77
2022/12/26 09:26:17;;;;;;;;;;;;;;;12.66;60.26;100394.66;2315280;75;51299;-78
2022/12/26 09:29:19;;;;;;;;;;;;;;;12.67;60.22;100397.67;2307898;76;52597;-78
2022/12/26 09:32:20;;;;;;;;;;;;;;;12.67;60.31;100392.86;2309023;76;52115;-78
2022/12/26 09:35:22;;;;;;;;;;;;;;;12.65;60.37;100383.70;2309034;76;51358;-77
2022/12/26 09:38:24;;;;;;;;;;;;;;;12.66;60.45;100388.52;2338502;76;51418;-78
2022/12/26 09:41:33;;;;;;;;;;;;;;;12.67;60.30;100386.22;2283719;76;51109;-78
2022/12/26 09:44:42;;;;;;;;;;;;;;;12.67;60.31;100385.72;2338667;76;50339;-78
2022/12/26 09:47:45;;;;;;;;;;;;;;;12.68;60.25;100386.55;2338443;75;50283;-78
2022/12/26 09:50:48;;;;;;;;;;;;;;;12.70;60.25;100391.22;2317334;76;50222;-78
2022/12/26 09:53:50;;;;;;;;;;;;;;;12.69;60.24;100386.41;2285292;76;52589;-78
2022/12/26 09:56:51;;;;;;;;;;;;;;;12.69;60.28;100379.77;2268554;78;51399;-78
2022/12/26 09:59:57;;;;;;;;;;;;;;;12.70;60.25;100378.78;2275168;77;51384;-78
2022/12/26 10:02:59;;;;;;;;;;;;;;;12.70;60.24;100383.26;2275220;76;50711;-79
2022/12/26 10:06:14;;;;;;;;;;;;;;;12.69;60.26;100382.43;2275139;78;51465;-78
2022/12/26 10:09:20;;;;;;;;;;;;;;;12.70;60.28;100390.72;2275086;78;50297;-78
2022/12/26 10:12:33;;;;;;;;;;;;;;;12.70;60.26;100400.52;2274985;78;51339;-78
2022/12/26 10:15:36;;;;;;;;;;;;;;;12.69;60.31;100406.33;2275189;78;51448;-77
2022/12/26 10:18:57;;;;;;;;;;;;;;;12.70;60.31;100406.66;2248189;78;51810;-78
2022/12/26 10:22:10;;;;;;;;;;;;;;;12.72;60.27;100410.50;2275122;77;50574;-78
2022/12/26 10:25:16;;;;;;;;;;;;;;;12.70;60.33;100406.66;2281572;76;51387;-77
2022/12/26 10:28:19;;;;;;;;;;;;;;;12.70;60.36;100410.63;2320185;76;51370;-78
2022/12/26 10:31:29;;;;;;;;;;;;;;;12.71;60.39;100411.46;2295236;76;52315;-78
2022/12/26 10:34:32;;;;;;;;;;;;;;;12.70;60.37;100418.59;2320119;76;50723;-78
2022/12/26 10:37:35;;;;;;;;;;;;;;;12.70;60.36;100410.63;2319623;76;50225;-78
2022/12/26 10:40:38;;;;;;;;;;;;;;;12.70;60.35;100407.98;2318619;76;50767;-77
2022/12/26 10:43:44;;;;;;;;;;;;;;;12.71;60.33;100408.31;2295635;76;51638;-77
2022/12/26 10:46:47;;;;;;;;;;;;;;;12.72;60.43;100410.50;2296765;76;51525;-77
2022/12/26 10:49:49;;;;;;;;;;;;;;;12.71;60.42;100405.66;2318496;76;50743;-78
2022/12/26 10:52:50;;;;;;;;;;;;;;;12.72;60.42;100409.17;2313870;77;51414;-77
2022/12/26 10:55:52;;;;;;;;;;;;;;;12.70;60.43;100390.72;2273821;77;52359;-77
2022/12/26 10:59:01;;;;;;;;;;;;;;;12.72;60.36;100410.00;2282227;77;51348;-78
2022/12/26 11:02:13;;;;;;;;;;;;;;;12.71;60.40;100410.14;2282728;77;51415;-78
2022/12/26 11:05:15;;;;;;;;;;;;;;;12.73;60.36;100405.52;2314077;77;50669;-78
2022/12/26 11:08:21;;;;;;;;;;;;;;;12.72;60.39;100403.36;2313772;77;51359;-78
2022/12/26 11:11:45;;;;;;;;;;;;;;;12.73;60.35;100412.16;2313868;77;51426;-78
2022/12/26 11:14:46;;;;;;;;;;;;;;;12.73;60.37;100420.95;2314366;76;50615;-79
2022/12/26 11:17:49;;;;;;;;;;;;;;;12.73;60.46;100418.79;2313867;77;50364;-78
2022/12/26 11:20:51;;;;;;;;;;;;;;;12.73;60.49;100420.12;2282817;77;51117;-78
2022/12/26 11:23:54;;;;;;;;;;;;;;;12.73;60.42;100413.48;2314177;76;51313;-79
2022/12/26 11:26:57;;;;;;;;;;;;;;;12.73;60.37;100419.62;2310960;77;51543;-79
2022/12/26 11:30:15;;;;;;;;;;;;;;;12.72;60.45;100415.30;2313867;76;50287;-79
2022/12/26 11:33:18;;;;;;;;;;;;;;;12.72;60.47;100415.30;2282829;77;52894;-79
2022/12/26 11:36:21;;;;;;;;;;;;;;;12.71;60.57;100400.84;2313750;77;50257;-78
2022/12/26 11:39:24;;;;;;;;;;;;;;;12.71;60.50;100383.09;2313991;76;51439;-78
2022/12/26 11:42:26;;;;;;;;;;;;;;;12.71;60.46;100389.73;2313986;77;50261;-78
2022/12/26 11:45:29;;;;;;;;;;;;;;;12.72;60.50;100386.61;2282628;77;52783;-78
2022/12/26 11:48:30;;;;;;;;;;;;;;;12.72;60.55;100399.37;2313673;77;50181;-78
2022/12/26 11:51:36;;;;;;;;;;;;;;;12.72;60.52;100410.00;2317626;76;50202;-78
2022/12/26 11:54:39;;;;;;;;;;;;;;;12.73;60.52;100414.81;2293714;76;52013;-78
2022/12/26 11:57:41;;;;;;;;;;;;;;;12.72;60.57;100407.34;2303729;76;52220;-78
2022/12/26 12:00:44;;;;;;;;;;;;;;;12.73;60.48;100410.33;2299203;76;51408;-78
2022/12/26 12:03:46;;;;;;;;;;;;;;;12.73;60.58;100409.00;2323954;76;51543;-78
2022/12/26 12:06:55;;;;;;;;;;;;;;;12.74;60.52;100413.81;2333426;76;51468;-79
2022/12/26 12:10:11;;;;;;;;;;;;;;;12.73;60.57;100412.98;2299029;76;50063;-78
2022/12/26 12:13:23;;;;;;;;;;;;;;;12.74;60.49;100410.69;2333560;76;50221;-78
2022/12/26 12:16:27;;;;;;;;;;;;;;;12.74;60.55;100412.02;2333371;76;50276;-78
2022/12/26 12:19:39;;;;;;;;;;;;;;;12.74;60.62;100409.83;2332794;75;50352;-78
2022/12/26 12:22:51;;;;;;;;;;;;;;;12.73;60.59;100407.67;2334951;76;50417;-78
2022/12/26 12:26:00;;;;;;;;;;;;;;;12.75;60.54;100404.88;2309839;76;50740;-78
2022/12/26 12:29:04;;;;;;;;;;;;;;;12.76;60.50;100400.73;2321759;76;51705;-78
2022/12/26 12:32:07;;;;;;;;;;;;;;;12.73;60.59;100398.38;2321632;76;51546;-78
2022/12/26 12:35:23;;;;;;;;;;;;;;;12.73;60.59;100394.40;2310135;76;51686;-78
2022/12/26 12:38:26;;;;;;;;;;;;;;;12.74;60.58;100400.07;2321683;75;50632;-78
2022/12/26 12:41:41;;;;;;;;;;;;;;;12.73;60.69;100392.24;2318745;76;51391;-78
2022/12/26 12:44:45;;;;;;;;;;;;;;;12.73;60.63;100378.47;2322950;76;50418;-79
2022/12/26 12:47:51;;;;;;;;;;;;;;;12.74;60.60;100383.28;2299278;75;50086;-78
2022/12/26 12:51:03;;;;;;;;;;;;;;;12.75;60.56;100387.13;2321634;76;50767;-79
2022/12/26 12:54:06;;;;;;;;;;;;;;;12.73;60.65;100377.14;2321935;75;50169;-79
2022/12/26 12:57:10;;;;;;;;;;;;;;;12.74;60.62;100376.17;2297756;76;50618;-79
2022/12/26 13:00:20;;;;;;;;;;;;;;;12.74;60.65;100380.16;2248344;78;51686;-78
2022/12/26 13:03:23;;;;;;;;;;;;;;;12.74;60.65;100386.80;2272066;78;50748;-78
2022/12/26 13:06:25;;;;;;;;;;;;;;;12.75;60.60;100395.09;2270874;78;50266;-78
2022/12/26 13:09:37;;;;;;;;;;;;;;;12.76;60.56;100390.61;2271791;78;51321;-78
2022/12/26 13:12:39;;;;;;;;;;;;;;;12.75;60.71;100388.95;2248678;78;49885;-78
2022/12/26 13:15:42;;;;;;;;;;;;;;;12.76;60.64;100393.27;2272005;78;50227;-78
2022/12/26 13:18:45;;;;;;;;;;;;;;;12.76;60.62;100391.44;2271946;78;50246;-79
2022/12/26 13:21:48;;;;;;;;;;;;;;;12.75;60.59;100384.47;2272090;77;50646;-78
2022/12/26 13:24:51;;;;;;;;;;;;;;;12.74;60.67;100377.50;2267364;76;51257;-78
2022/12/26 13:27:53;;;;;;;;;;;;;;;12.75;60.63;100387.62;2294283;77;50650;-79
2022/12/26 13:30:55;;;;;;;;;;;;;;;12.74;60.67;100385.47;2307972;77;50246;-78
2022/12/26 13:33:56;;;;;;;;;;;;;;;12.76;60.66;100382.64;2286409;77;50224;-79
2022/12/26 13:36:59;;;;;;;;;;;;;;;12.77;60.61;100393.13;2286106;77;51632;-78
2022/12/26 13:40:02;;;;;;;;;;;;;;;12.79;60.53;100383.66;2307908;77;51666;-78
2022/12/26 13:46:43;;;;;;;;;;;;;;;12.76;60.61;100384.80;2308207;76;22363;-78
2022/12/26 13:49:45;;;;;;;;;;;;;;;12.78;60.58;100393.45;2286142;77;49538;-79
2022/12/26 13:52:46;;;;;;;;;;;;;;;12.77;60.62;100398.44;2313447;76;51480;-79
2022/12/26 13:55:48;;;;;;;;;;;;;;;12.78;60.59;100396.11;2313411;76;51483;-78
2022/12/26 13:58:53;;;;;;;;;;;;;;;12.77;60.67;100393.63;2311121;76;50537;-78
2022/12/26 14:01:57;;;;;;;;;;;;;;;12.77;60.71;100394.45;2333488;76;51495;-79
2022/12/26 14:05:02;;;;;;;;;;;;;;;12.78;60.68;100401.92;2333422;75;50648;-78
2022/12/26 14:08:09;;;;;;;;;;;;;;;12.77;60.68;100407.73;2327238;76;51579;-79
2022/12/26 14:11:27;;;;;;;;;;;;;;;12.79;60.65;100407.55;2299635;76;51371;-78
2022/12/26 14:14:39;;;;;;;;;;;;;;;12.79;60.59;100405.77;2311236;76;52302;-78
2022/12/26 14:18:01;;;;;;;;;;;;;;;12.78;60.73;100413.87;2333223;76;50014;-79
2022/12/26 14:21:17;;;;;;;;;;;;;;;12.79;60.66;100411.07;2288923;76;51418;-79
2022/12/26 14:24:23;;;;;;;;;;;;;;;12.80;60.58;100415.88;2289028;77;50620;-79
2022/12/26 14:27:26;;;;;;;;;;;;;;;12.80;60.68;100419.86;2253008;78;51111;-78
2022/12/26 14:30:32;;;;;;;;;;;;;;;12.78;60.71;100427.97;2264752;78;50266;-79
2022/12/26 14:33:54;;;;;;;;;;;;;;;12.76;60.76;100421.97;2265940;78;51558;-79
2022/12/26 14:37:15;;;;;;;;;;;;;;;12.77;60.79;100421.50;2264700;78;50626;-78
2022/12/26 14:40:22;;;;;;;;;;;;;;;12.77;60.78;100422.33;2242418;78;52356;-79
2022/12/26 14:43:25;;;;;;;;;;;;;;;12.76;60.74;100421.14;2265774;77;50412;-78
2022/12/26 14:46:37;;;;;;;;;;;;;;;12.75;60.80;100420.31;2265759;78;50757;-79
2022/12/26 14:49:39;;;;;;;;;;;;;;;12.77;60.80;100421.00;2265912;77;21756;-77
2022/12/26 14:52:42;;;;;;;;;;;;;;;12.75;60.77;100420.31;2240867;78;52356;-77
2022/12/26 14:55:47;;;;;;;;;;;;;;;12.76;60.82;100421.97;2275452;78;50692;-79
2022/12/26 14:58:49;;;;;;;;;;;;;;;12.76;60.81;100428.61;2238870;78;50266;-77
2022/12/26 15:01:53;;;;;;;;;;;;;;;12.76;60.86;100428.61;2246753;79;50246;-77
2022/12/26 15:04:59;;;;;;;;;;;;;;;12.77;60.73;100429.47;2213561;79;50951;-78
2022/12/26 15:08:11;;;;;;;;;;;;;;;12.76;60.81;100417.98;2246993;79;51545;-77
2022/12/26 15:11:31;;;;;;;;;;;;;;;12.77;60.81;100423.66;2215199;79;51742;-77
2022/12/26 15:14:34;;;;;;;;;;;;;;;12.77;60.78;100429.47;2247049;79;51483;-78
2022/12/26 15:17:54;;;;;;;;;;;;;;;12.77;60.78;100430.30;2213957;79;52418;-78
2022/12/26 15:21:11;;;;;;;;;;;;;;;12.77;60.86;100431.62;2246955;78;51466;-78
2022/12/26 15:24:14;;;;;;;;;;;;;;;12.77;60.79;100440.91;2251496;78;51527;-78
2022/12/26 15:27:23;;;;;;;;;;;;;;;12.78;60.79;100441.24;2273718;77;51461;-78
2022/12/26 15:30:43;;;;;;;;;;;;;;;12.78;60.79;100425.81;2242369;78;51782;-78
2022/12/26 15:33:52;;;;;;;;;;;;;;;12.76;60.79;100412.67;2265949;78;51477;-78
2022/12/26 15:37:01;;;;;;;;;;;;;;;12.77;60.80;100405.57;2265779;78;52394;-78
2022/12/26 15:40:16;;;;;;;;;;;;;;;12.76;60.77;100399.41;2266046;78;50069;-78
2022/12/26 15:43:26;;;;;;;;;;;;;;;12.77;60.73;100402.41;2218161;78;51500;-78
2022/12/26 15:46:30;;;;;;;;;;;;;;;12.78;60.79;100405.40;2265785;77;51427;-78
2022/12/26 15:49:34;;;;;;;;;;;;;;;12.77;60.75;100402.41;2265918;77;50625;-78
2022/12/26 15:52:53;;;;;;;;;;;;;;;12.76;60.91;100398.57;2265905;77;51595;-78
2022/12/26 15:55:57;;;;;;;;;;;;;;;12.77;60.79;100403.74;2276331;78;50441;-78
2022/12/26 15:59:18;;;;;;;;;;;;;;;12.77;60.83;100398.44;2276262;78;51581;-78
2022/12/26 16:02:27;;;;;;;;;;;;;;;12.77;60.75;100401.09;2276650;78;51508;-78
2022/12/26 16:05:47;;;;;;;;;;;;;;;12.77;60.75;100405.08;2276459;78;51396;-78
2022/12/26 16:08:56;;;;;;;;;;;;;;;12.77;60.78;100402.41;2280242;77;52326;-78
2022/12/26 16:11:58;;;;;;;;;;;;;;;12.76;60.85;100402.05;2264478;78;50645;-78
2022/12/26 16:15:10;;;;;;;;;;;;;;;12.76;60.87;100411.34;2280370;77;50383;-78
2022/12/26 16:18:13;;;;;;;;;;;;;;;12.76;60.83;100407.37;2276079;78;50652;-78
2022/12/26 16:24:34;;;;;;;;;;;;;;;12.78;60.80;100412.04;2278486;78;22584;-78
2022/12/26 16:27:36;;;;;;;;;;;;;;;12.78;60.77;100414.69;2281353;78;50338;-78
2022/12/26 16:30:38;;;;;;;;;;;;;;;12.77;60.85;100417.52;2284432;78;51451;-78
2022/12/26 16:33:42;;;;;;;;;;;;;;;12.77;60.87;100418.34;2251492;78;51665;-78
2022/12/26 16:36:44;;;;;;;;;;;;;;;12.76;60.93;100424.63;2284163;78;51422;-78
2022/12/26 16:39:47;;;;;;;;;;;;;;;12.76;60.97;100416.66;2284350;78;50580;-78
2022/12/26 16:43:03;;;;;;;;;;;;;;;12.77;60.84;100413.03;2283313;78;50690;-78
2022/12/26 16:46:05;;;;;;;;;;;;;;;12.76;60.82;100419.31;2251179;77;51029;-78
2022/12/26 16:49:08;;;;;;;;;;;;;;;12.77;60.88;100417.52;2284299;77;52503;-78
2022/12/26 16:52:29;;;;;;;;;;;;;;;12.77;60.85;100427.64;2284364;78;50219;-78
2022/12/26 16:55:33;;;;;;;;;;;;;;;12.78;60.87;100427.97;2278108;78;51430;-78
2022/12/26 16:58:35;;;;;;;;;;;;;;;12.77;60.82;100431.62;2242285;78;52557;-78
2022/12/26 17:01:37;;;;;;;;;;;;;;;12.79;60.81;100437.63;2265800;78;50251;-78
2022/12/26 17:04:38;;;;;;;;;;;;;;;12.77;60.85;100432.12;2265932;78;50513;-78
2022/12/26 17:07:42;;;;;;;;;;;;;;;12.77;60.92;100443.56;2265834;78;51409;-79
2022/12/26 17:10:47;;;;;;;;;;;;;;;12.78;60.88;100451.86;2242818;78;51796;-79
2022/12/26 17:13:49;;;;;;;;;;;;;;;12.78;60.83;100447.88;2265763;78;50726;-79
2022/12/26 17:16:59;;;;;;;;;;;;;;;12.79;60.85;100459.33;2265646;78;50753;-78
2022/12/26 17:20:19;;;;;;;;;;;;;;;12.78;60.92;100467.80;2264888;78;51398;-79
2022/12/26 17:23:28;;;;;;;;;;;;;;;12.79;60.87;100469.95;2267277;77;51711;-79
2022/12/26 17:26:30;;;;;;;;;;;;;;;12.79;60.87;100469.95;2277658;77;50334;-78
2022/12/26 17:29:35;;;;;;;;;;;;;;;12.76;60.98;100477.72;2280110;77;50114;-78
2022/12/26 17:32:38;;;;;;;;;;;;;;;12.78;60.92;100488.20;2276279;78;50646;-78
2022/12/26 17:35:40;;;;;;;;;;;;;;;12.77;60.96;100476.75;2254145;78;51678;-79
2022/12/26 17:38:43;;;;;;;;;;;;;;;12.78;60.86;100477.09;2276116;78;51321;-79
2022/12/26 17:41:55;;;;;;;;;;;;;;;12.79;60.84;100482.76;2276489;78;52387;-79
2022/12/26 17:44:56;;;;;;;;;;;;;;;12.79;60.84;100477.45;2276227;78;50712;-78
2022/12/26 17:47:58;;;;;;;;;;;;;;;12.80;60.80;100486.23;2254550;78;51673;-79
2022/12/26 17:51:00;;;;;;;;;;;;;;;12.80;60.84;100477.78;2280293;77;51384;-78
2022/12/26 17:54:02;;;;;;;;;;;;;;;12.79;60.83;100486.73;2276781;77;50270;-78
2022/12/26 17:57:04;;;;;;;;;;;;;;;12.78;60.90;100481.06;2281383;77;50671;-78
2022/12/26 18:00:07;;;;;;;;;;;;;;;12.81;60.80;100493.21;2251141;78;52536;-78